Humidity-temperature Sensor

Selected Measurement Type: Relative Humidity

 
Relative Humidity [%]     6 entries per hour
Showing data from 7/26/2022 (00:00:00 Z) to 7/23/2022 (00:01:00 Z)
Previous Next [ Day | 3-Days | 7-Days ]
First Last
Prev [ Day | 3-Days | 7-Days ] Next
First Last

Start Time:     :
End Time:     :     
Time (in GMT) :00 :50 :40 :30 :20 :10
Previous Next [ Day | 3-Days | 7-Days ]
First Last
Prev [ Day | 3-Days | 7-Days ] Next
First Last


123 => good data
MM => data is determined as missing
-- => data not received/configured
Back to Top Back to Top
7/26/2022 00:00 to 23:10 90.78 90.43 90.43 90.27 90.43 90.78
7/25/2022 23:00 to 22:10 91.81 92.16 91.60 90.98 90.10 88.21
7/25/2022 22:00 to 21:10 87.88 88.44 88.97 88.07 87.53 87.06
7/25/2022 21:00 to 20:10 87.68 87.88 87.96 87.94 87.57 87.35
7/25/2022 20:00 to 19:10 87.55 87.80 88.11 88.58 88.70 89.13
7/25/2022 19:00 to 18:10 89.73 90.35 90.90 91.60 91.58 91.74
7/25/2022 18:00 to 17:10 92.14 91.95 91.54 90.33 90.57 91.05
7/25/2022 17:00 to 16:10 91.60 91.87 91.89 91.17 91.25 91.05
7/25/2022 16:00 to 15:10 91.52 91.68 91.68 91.91 92.46 93.37
7/25/2022 15:00 to 14:10 94.54 95.11 95.90 96.06 95.63 95.73
7/25/2022 14:00 to 13:10 95.98 96.37 96.76 96.43 95.81 96.45
7/25/2022 13:00 to 12:10 97.15 96.86 96.53 95.63 95.32 94.03
7/25/2022 12:00 to 11:10 93.92 94.46 94.72 94.62 94.37 94.37
7/25/2022 11:00 to 10:10 94.74 94.91 94.74 94.33 94.07 93.55
7/25/2022 10:00 to 9:10 94.11 94.31 94.56 94.74 94.89 94.91
7/25/2022 09:00 to 8:10 93.61 91.93 92.26 93.16 93.64 94.05
7/25/2022 08:00 to 7:10 94.60 95.20 94.54 93.86 94.00 94.15
7/25/2022 07:00 to 6:10 93.59 93.68 94.05 94.52 94.89 94.91
7/25/2022 06:00 to 5:10 95.71 96.39 96.78 97.17 97.66 98.09
7/25/2022 05:00 to 4:10 98.57 98.75 99.20 99.27 99.37 99.18
7/25/2022 04:00 to 3:10 99.06 98.69 98.05 97.68 97.91 98.03
7/25/2022 03:00 to 2:10 98.20 98.85 98.90 98.83 98.83 98.88
7/25/2022 02:00 to 1:10 98.77 98.69 98.59 97.62 97.07 96.90
7/25/2022 01:00 to 0:10 97.31 97.05 96.84 97.52 97.50 97.54
7/25/2022 00:00 to 23:10 97.40 96.35 95.83 95.48 95.09 94.77
7/24/2022 23:00 to 22:10 95.16 95.42 95.22 94.31 93.94 93.92
7/24/2022 22:00 to 21:10 94.23 95.16 95.53 95.14 94.56 94.77
7/24/2022 21:00 to 20:10 95.69 95.83 95.28 94.44 94.66 95.24
7/24/2022 20:00 to 19:10 94.89 95.28 95.94 96.31 95.83 95.51
7/24/2022 19:00 to 18:10 95.90 95.85 95.57 94.66 95.07 95.79
7/24/2022 18:00 to 17:10 95.14 94.97 95.24 95.28 95.03 95.48
7/24/2022 17:00 to 16:10 95.94 96.00 96.04 95.85 95.75 94.85
7/24/2022 16:00 to 15:10 94.07 94.27 94.40 94.35 94.56 94.25
7/24/2022 15:00 to 14:10 93.86 93.92 93.78 92.92 93.31 93.57
7/24/2022 14:00 to 13:10 94.62 95.36 95.53 94.79 93.29 92.05
7/24/2022 13:00 to 12:10 91.87 91.48 91.60 91.46 91.35 91.60
7/24/2022 12:00 to 11:10 91.87 91.95 91.81 91.72 92.05 92.73
7/24/2022 11:00 to 10:10 93.22 93.92 94.03 94.13 94.11 93.96
7/24/2022 10:00 to 9:10 93.61 93.55 93.35 92.77 92.87 93.33
7/24/2022 09:00 to 8:10 93.98 93.47 93.08 93.31 93.76 93.80
7/24/2022 08:00 to 7:10 92.63 92.14 92.32 92.36 91.89 91.05
7/24/2022 07:00 to 6:10 90.43 90.39 90.88 91.35 91.66 91.81
7/24/2022 06:00 to 5:10 91.68 92.11 91.99 91.91 92.30 92.77
7/24/2022 05:00 to 4:10 93.49 93.76 93.43 93.51 93.14 92.59
7/24/2022 04:00 to 3:10 91.60 90.39 89.87 90.20 90.39 91.19
7/24/2022 03:00 to 2:10 90.86 91.40 90.72 90.27 89.53 88.46
7/24/2022 02:00 to 1:10 87.92 87.86 88.17 87.74 87.53 87.76
7/24/2022 01:00 to 0:10 88.09 88.40 88.54 88.44 87.94 88.07
7/24/2022 00:00 to 23:10 87.98 88.11 87.72 88.50 89.48 89.90
7/23/2022 23:00 to 22:10 89.01 88.50 87.86 88.13 87.84 88.07
7/23/2022 22:00 to 21:10 88.19 88.25 88.15 87.74 87.72 87.57
7/23/2022 21:00 to 20:10 87.63 87.31 88.05 88.62 87.80 87.47
7/23/2022 20:00 to 19:10 87.45 87.16 87.06 87.14 87.08 87.04
7/23/2022 19:00 to 18:10 87.33 87.22 87.29 87.63 87.45 87.59
7/23/2022 18:00 to 17:10 87.55 87.68 87.70 87.63 87.45 87.08
7/23/2022 17:00 to 16:10 87.31 87.72 87.29 86.87 86.65 86.61
7/23/2022 16:00 to 15:10 86.69 87.22 87.24 87.78 87.88 88.13
7/23/2022 15:00 to 14:10 88.13 88.25 87.96 87.88 88.09 88.33
7/23/2022 14:00 to 13:10 88.07 88.50 88.42 88.52 88.52 88.72
7/23/2022 13:00 to 12:10 89.07 89.09 89.34 89.22 89.28 89.50
7/23/2022 12:00 to 11:10 89.83 89.81 89.69 90.00 90.14 89.83
7/23/2022 11:00 to 10:10 89.63 89.87 89.63 90.00 90.43 90.92
7/23/2022 10:00 to 9:10 90.82 90.84 91.15 91.33 91.00 90.92
7/23/2022 09:00 to 8:10 91.13 91.37 91.31 91.40 91.35 91.42
7/23/2022 08:00 to 7:10 91.62 91.50 91.46 91.52 91.70 91.89
7/23/2022 07:00 to 6:10 92.03 92.11 92.24 92.16 92.59 92.98
7/23/2022 06:00 to 5:10 93.22 93.31 93.14 92.32 91.85 91.50
7/23/2022 05:00 to 4:10 91.00 90.76 90.51 90.63 90.76 90.84
7/23/2022 04:00 to 3:10 90.70 90.43 90.35 90.39 90.51 90.57
7/23/2022 03:00 to 2:10 90.57 91.11 91.29 91.60 92.50 92.96
7/23/2022 02:00 to 1:10 92.61 91.58 90.92 91.00 90.61 90.41
7/23/2022 01:00 to 0:10 90.16 90.00 89.77 89.90 90.04 90.04